sensor_id;sensor_type;location;lat;lon;timestamp;P1;durP1;ratioP1;P2;durP2;ratioP2
56136;SDS011;42008;52.934;5.884;2023-04-05T00:00:30;14.80;;;6.13;;
56136;SDS011;42008;52.934;5.884;2023-04-05T00:02:56;10.97;;;5.60;;
56136;SDS011;42008;52.934;5.884;2023-04-05T00:05:24;12.53;;;5.90;;
56136;SDS011;42008;52.934;5.884;2023-04-05T00:07:58;14.93;;;6.30;;
56136;SDS011;42008;52.934;5.884;2023-04-05T00:10:25;11.67;;;5.73;;
56136;SDS011;42008;52.934;5.884;2023-04-05T00:12:52;13.03;;;6.70;;
56136;SDS011;42008;52.934;5.884;2023-04-05T00:15:18;11.30;;;6.10;;
56136;SDS011;42008;52.934;5.884;2023-04-05T00:17:43;10.10;;;5.60;;
56136;SDS011;42008;52.934;5.884;2023-04-05T00:20:09;13.70;;;6.47;;
56136;SDS011;42008;52.934;5.884;2023-04-05T00:22:36;13.83;;;6.90;;
56136;SDS011;42008;52.934;5.884;2023-04-05T00:25:02;11.90;;;6.40;;
56136;SDS011;42008;52.934;5.884;2023-04-05T00:27:29;12.33;;;6.00;;
56136;SDS011;42008;52.934;5.884;2023-04-05T00:29:54;12.33;;;6.50;;
56136;SDS011;42008;52.934;5.884;2023-04-05T00:32:20;15.73;;;6.47;;
56136;SDS011;42008;52.934;5.884;2023-04-05T00:34:46;14.20;;;6.33;;
56136;SDS011;42008;52.934;5.884;2023-04-05T00:37:12;11.47;;;7.03;;
56136;SDS011;42008;52.934;5.884;2023-04-05T00:39:38;13.70;;;6.53;;
56136;SDS011;42008;52.934;5.884;2023-04-05T00:42:04;11.43;;;6.30;;
56136;SDS011;42008;52.934;5.884;2023-04-05T00:44:30;13.83;;;6.13;;
56136;SDS011;42008;52.934;5.884;2023-04-05T00:47:02;13.30;;;6.23;;
56136;SDS011;42008;52.934;5.884;2023-04-05T00:49:29;12.17;;;5.83;;
56136;SDS011;42008;52.934;5.884;2023-04-05T00:51:57;10.83;;;6.20;;
56136;SDS011;42008;52.934;5.884;2023-04-05T00:54:26;13.67;;;5.43;;
56136;SDS011;42008;52.934;5.884;2023-04-05T00:56:56;11.73;;;5.80;;
56136;SDS011;42008;52.934;5.884;2023-04-05T00:59:33;11.83;;;6.70;;
56136;SDS011;42008;52.934;5.884;2023-04-05T01:02:12;14.17;;;6.73;;
56136;SDS011;42008;52.934;5.884;2023-04-05T01:04:58;10.07;;;5.73;;
56136;SDS011;42008;52.934;5.884;2023-04-05T01:07:37;13.73;;;6.30;;
56136;SDS011;42008;52.934;5.884;2023-04-05T01:10:09;13.57;;;6.23;;
56136;SDS011;42008;52.934;5.884;2023-04-05T01:12:38;11.67;;;5.90;;
56136;SDS011;42008;52.934;5.884;2023-04-05T01:15:05;12.97;;;6.63;;
56136;SDS011;42008;52.934;5.884;2023-04-05T01:17:32;10.33;;;6.13;;
56136;SDS011;42008;52.934;5.884;2023-04-05T01:20:04;13.00;;;6.07;;
56136;SDS011;42008;52.934;5.884;2023-04-05T01:38:51;11.50;;;5.73;;
56136;SDS011;42008;52.934;5.884;2023-04-05T01:41:19;12.47;;;6.20;;
56136;SDS011;42008;52.934;5.884;2023-04-05T01:43:46;11.10;;;5.93;;
56136;SDS011;42008;52.934;5.884;2023-04-05T01:46:11;9.63;;;6.13;;
56136;SDS011;42008;52.934;5.884;2023-04-05T01:48:37;11.37;;;5.80;;
56136;SDS011;42008;52.934;5.884;2023-04-05T01:51:02;16.13;;;6.97;;
56136;SDS011;42008;52.934;5.884;2023-04-05T01:53:28;11.87;;;6.37;;
56136;SDS011;42008;52.934;5.884;2023-04-05T01:55:58;12.77;;;6.57;;
56136;SDS011;42008;52.934;5.884;2023-04-05T01:58:25;14.13;;;6.97;;
56136;SDS011;42008;52.934;5.884;2023-04-05T02:00:52;15.30;;;7.20;;
56136;SDS011;42008;52.934;5.884;2023-04-05T02:03:19;11.97;;;6.50;;
56136;SDS011;42008;52.934;5.884;2023-04-05T02:05:45;12.43;;;7.20;;
56136;SDS011;42008;52.934;5.884;2023-04-05T02:08:11;13.17;;;7.07;;
56136;SDS011;42008;52.934;5.884;2023-04-05T02:10:38;17.97;;;8.17;;
56136;SDS011;42008;52.934;5.884;2023-04-05T02:13:04;14.07;;;7.20;;
56136;SDS011;42008;52.934;5.884;2023-04-05T02:15:30;15.30;;;7.13;;
56136;SDS011;42008;52.934;5.884;2023-04-05T02:17:57;15.27;;;7.30;;
56136;SDS011;42008;52.934;5.884;2023-04-05T02:20:27;12.30;;;6.43;;
56136;SDS011;42008;52.934;5.884;2023-04-05T02:22:53;16.13;;;7.77;;
56136;SDS011;42008;52.934;5.884;2023-04-05T02:25:19;15.20;;;6.97;;
56136;SDS011;42008;52.934;5.884;2023-04-05T02:27:44;14.00;;;6.73;;
56136;SDS011;42008;52.934;5.884;2023-04-05T02:30:10;12.10;;;6.53;;
56136;SDS011;42008;52.934;5.884;2023-04-05T02:32:40;14.57;;;6.67;;
56136;SDS011;42008;52.934;5.884;2023-04-05T02:35:10;16.70;;;7.30;;
56136;SDS011;42008;52.934;5.884;2023-04-05T02:37:36;17.37;;;7.50;;
56136;SDS011;42008;52.934;5.884;2023-04-05T02:40:05;14.60;;;7.90;;
56136;SDS011;42008;52.934;5.884;2023-04-05T02:42:33;16.77;;;7.90;;
56136;SDS011;42008;52.934;5.884;2023-04-05T02:44:59;13.87;;;8.23;;
56136;SDS011;42008;52.934;5.884;2023-04-05T02:47:25;14.40;;;7.93;;
56136;SDS011;42008;52.934;5.884;2023-04-05T02:49:50;19.57;;;8.37;;
56136;SDS011;42008;52.934;5.884;2023-04-05T02:52:16;14.03;;;7.63;;
56136;SDS011;42008;52.934;5.884;2023-04-05T02:54:41;14.37;;;7.83;;
56136;SDS011;42008;52.934;5.884;2023-04-05T02:57:08;16.03;;;7.80;;
56136;SDS011;42008;52.934;5.884;2023-04-05T02:59:36;14.07;;;7.13;;
56136;SDS011;42008;52.934;5.884;2023-04-05T03:02:06;12.97;;;6.77;;
56136;SDS011;42008;52.934;5.884;2023-04-05T03:04:32;11.67;;;7.23;;
56136;SDS011;42008;52.934;5.884;2023-04-05T03:07:00;15.03;;;8.50;;
56136;SDS011;42008;52.934;5.884;2023-04-05T03:09:30;15.30;;;8.00;;
56136;SDS011;42008;52.934;5.884;2023-04-05T03:12:01;13.97;;;8.27;;
56136;SDS011;42008;52.934;5.884;2023-04-05T03:14:32;17.37;;;8.97;;
56136;SDS011;42008;52.934;5.884;2023-04-05T03:16:59;19.00;;;9.30;;
56136;SDS011;42008;52.934;5.884;2023-04-05T03:19:25;17.50;;;8.90;;
56136;SDS011;42008;52.934;5.884;2023-04-05T03:21:51;13.77;;;8.43;;
56136;SDS011;42008;52.934;5.884;2023-04-05T03:24:17;18.50;;;8.93;;
56136;SDS011;42008;52.934;5.884;2023-04-05T03:26:44;15.27;;;8.00;;
56136;SDS011;42008;52.934;5.884;2023-04-05T03:29:10;17.63;;;9.53;;
56136;SDS011;42008;52.934;5.884;2023-04-05T03:31:35;17.23;;;8.27;;
56136;SDS011;42008;52.934;5.884;2023-04-05T03:34:01;17.50;;;9.33;;
56136;SDS011;42008;52.934;5.884;2023-04-05T03:36:26;18.00;;;8.53;;
56136;SDS011;42008;52.934;5.884;2023-04-05T03:39:09;16.57;;;8.17;;
56136;SDS011;42008;52.934;5.884;2023-04-05T03:41:36;16.93;;;8.47;;
56136;SDS011;42008;52.934;5.884;2023-04-05T03:44:02;15.63;;;7.87;;
56136;SDS011;42008;52.934;5.884;2023-04-05T03:46:28;16.50;;;8.13;;
56136;SDS011;42008;52.934;5.884;2023-04-05T03:48:55;14.90;;;8.70;;
56136;SDS011;42008;52.934;5.884;2023-04-05T03:51:21;11.80;;;7.67;;
56136;SDS011;42008;52.934;5.884;2023-04-05T03:53:47;12.73;;;8.47;;
56136;SDS011;42008;52.934;5.884;2023-04-05T03:56:13;23.53;;;10.10;;
56136;SDS011;42008;52.934;5.884;2023-04-05T03:58:39;12.70;;;8.13;;
56136;SDS011;42008;52.934;5.884;2023-04-05T04:01:05;16.47;;;8.07;;
56136;SDS011;42008;52.934;5.884;2023-04-05T04:03:31;15.87;;;8.40;;
56136;SDS011;42008;52.934;5.884;2023-04-05T04:05:56;15.00;;;7.90;;
56136;SDS011;42008;52.934;5.884;2023-04-05T04:08:22;11.03;;;7.43;;
56136;SDS011;42008;52.934;5.884;2023-04-05T04:10:48;12.17;;;7.20;;
56136;SDS011;42008;52.934;5.884;2023-04-05T04:13:14;15.43;;;8.23;;
56136;SDS011;42008;52.934;5.884;2023-04-05T04:15:43;17.47;;;9.20;;
56136;SDS011;42008;52.934;5.884;2023-04-05T04:18:09;17.73;;;8.93;;
56136;SDS011;42008;52.934;5.884;2023-04-05T04:20:34;18.87;;;9.80;;
56136;SDS011;42008;52.934;5.884;2023-04-05T04:23:00;18.93;;;9.70;;
56136;SDS011;42008;52.934;5.884;2023-04-05T04:25:25;19.27;;;9.07;;
56136;SDS011;42008;52.934;5.884;2023-04-05T04:27:54;19.33;;;9.67;;
56136;SDS011;42008;52.934;5.884;2023-04-05T04:30:21;16.80;;;11.43;;
56136;SDS011;42008;52.934;5.884;2023-04-05T04:32:47;17.57;;;9.70;;
56136;SDS011;42008;52.934;5.884;2023-04-05T04:35:15;19.20;;;9.80;;
56136;SDS011;42008;52.934;5.884;2023-04-05T04:37:52;18.93;;;9.63;;
56136;SDS011;42008;52.934;5.884;2023-04-05T04:40:27;17.85;;;9.65;;
56136;SDS011;42008;52.934;5.884;2023-04-05T04:42:59;19.67;;;8.63;;
56136;SDS011;42008;52.934;5.884;2023-04-05T04:45:34;15.93;;;7.80;;
56136;SDS011;42008;52.934;5.884;2023-04-05T04:48:02;18.30;;;8.93;;
56136;SDS011;42008;52.934;5.884;2023-04-05T04:50:29;22.40;;;10.37;;
56136;SDS011;42008;52.934;5.884;2023-04-05T04:53:00;21.97;;;11.37;;
56136;SDS011;42008;52.934;5.884;2023-04-05T04:55:26;15.57;;;9.23;;
56136;SDS011;42008;52.934;5.884;2023-04-05T04:57:52;18.03;;;9.93;;
56136;SDS011;42008;52.934;5.884;2023-04-05T05:00:18;20.73;;;10.13;;
56136;SDS011;42008;52.934;5.884;2023-04-05T05:02:45;23.70;;;12.30;;
56136;SDS011;42008;52.934;5.884;2023-04-05T05:05:11;19.40;;;11.00;;
56136;SDS011;42008;52.934;5.884;2023-04-05T05:07:38;22.83;;;10.90;;
56136;SDS011;42008;52.934;5.884;2023-04-05T05:10:10;20.27;;;11.10;;
56136;SDS011;42008;52.934;5.884;2023-04-05T05:12:40;20.38;;;10.48;;
56136;SDS011;42008;52.934;5.884;2023-04-05T05:15:06;16.57;;;9.70;;
56136;SDS011;42008;52.934;5.884;2023-04-05T05:17:32;16.17;;;8.63;;
56136;SDS011;42008;52.934;5.884;2023-04-05T05:19:59;19.77;;;10.00;;
56136;SDS011;42008;52.934;5.884;2023-04-05T05:22:25;21.47;;;9.97;;
56136;SDS011;42008;52.934;5.884;2023-04-05T05:24:51;22.93;;;11.07;;
56136;SDS011;42008;52.934;5.884;2023-04-05T05:27:17;17.47;;;9.70;;
56136;SDS011;42008;52.934;5.884;2023-04-05T05:29:43;19.63;;;11.23;;
56136;SDS011;42008;52.934;5.884;2023-04-05T05:32:08;25.73;;;10.07;;
56136;SDS011;42008;52.934;5.884;2023-04-05T05:34:38;20.30;;;10.17;;
56136;SDS011;42008;52.934;5.884;2023-04-05T05:37:05;19.90;;;11.30;;
56136;SDS011;42008;52.934;5.884;2023-04-05T05:39:32;22.20;;;13.40;;
56136;SDS011;42008;52.934;5.884;2023-04-05T05:41:57;20.07;;;10.80;;
56136;SDS011;42008;52.934;5.884;2023-04-05T05:44:23;24.73;;;11.57;;
56136;SDS011;42008;52.934;5.884;2023-04-05T05:46:49;17.20;;;9.90;;
56136;SDS011;42008;52.934;5.884;2023-04-05T05:49:15;19.73;;;10.00;;
56136;SDS011;42008;52.934;5.884;2023-04-05T05:51:41;21.90;;;11.53;;
56136;SDS011;42008;52.934;5.884;2023-04-05T05:54:06;19.33;;;11.23;;
56136;SDS011;42008;52.934;5.884;2023-04-05T05:56:32;18.27;;;9.73;;
56136;SDS011;42008;52.934;5.884;2023-04-05T05:58:57;19.70;;;11.33;;
56136;SDS011;42008;52.934;5.884;2023-04-05T06:01:23;24.03;;;11.27;;
56136;SDS011;42008;52.934;5.884;2023-04-05T06:03:53;20.87;;;11.47;;
56136;SDS011;42008;52.934;5.884;2023-04-05T06:06:19;27.70;;;11.47;;
56136;SDS011;42008;52.934;5.884;2023-04-05T06:08:45;22.80;;;12.37;;
56136;SDS011;42008;52.934;5.884;2023-04-05T06:11:20;21.53;;;12.53;;
56136;SDS011;42008;52.934;5.884;2023-04-05T06:13:48;21.87;;;11.97;;
56136;SDS011;42008;52.934;5.884;2023-04-05T06:16:15;22.60;;;12.27;;
56136;SDS011;42008;52.934;5.884;2023-04-05T06:18:42;23.93;;;12.40;;
56136;SDS011;42008;52.934;5.884;2023-04-05T06:21:08;22.43;;;13.00;;
56136;SDS011;42008;52.934;5.884;2023-04-05T06:23:33;21.83;;;12.50;;
56136;SDS011;42008;52.934;5.884;2023-04-05T06:25:59;20.03;;;13.27;;
56136;SDS011;42008;52.934;5.884;2023-04-05T06:28:25;27.67;;;14.37;;
56136;SDS011;42008;52.934;5.884;2023-04-05T06:30:50;25.07;;;14.53;;
56136;SDS011;42008;52.934;5.884;2023-04-05T06:33:16;32.10;;;14.70;;
56136;SDS011;42008;52.934;5.884;2023-04-05T06:35:41;25.17;;;13.57;;
56136;SDS011;42008;52.934;5.884;2023-04-05T06:38:07;23.87;;;14.13;;
56136;SDS011;42008;52.934;5.884;2023-04-05T06:40:33;30.27;;;15.63;;
56136;SDS011;42008;52.934;5.884;2023-04-05T06:42:59;30.60;;;14.47;;
56136;SDS011;42008;52.934;5.884;2023-04-05T06:45:24;28.00;;;15.87;;
56136;SDS011;42008;52.934;5.884;2023-04-05T06:47:50;28.23;;;14.80;;
56136;SDS011;42008;52.934;5.884;2023-04-05T06:50:15;22.67;;;14.30;;
56136;SDS011;42008;52.934;5.884;2023-04-05T06:52:41;24.23;;;15.33;;
56136;SDS011;42008;52.934;5.884;2023-04-05T06:55:07;21.13;;;13.77;;
56136;SDS011;42008;52.934;5.884;2023-04-05T06:57:33;20.40;;;13.53;;
56136;SDS011;42008;52.934;5.884;2023-04-05T06:59:58;20.30;;;12.97;;
56136;SDS011;42008;52.934;5.884;2023-04-05T07:02:24;24.33;;;13.77;;
56136;SDS011;42008;52.934;5.884;2023-04-05T07:04:50;25.53;;;14.90;;
56136;SDS011;42008;52.934;5.884;2023-04-05T07:07:15;24.40;;;13.80;;
56136;SDS011;42008;52.934;5.884;2023-04-05T07:09:41;21.63;;;13.13;;
56136;SDS011;42008;52.934;5.884;2023-04-05T07:12:07;21.17;;;13.27;;
56136;SDS011;42008;52.934;5.884;2023-04-05T07:14:34;21.67;;;12.80;;
56136;SDS011;42008;52.934;5.884;2023-04-05T07:17:01;18.87;;;11.57;;
56136;SDS011;42008;52.934;5.884;2023-04-05T07:19:28;19.00;;;12.43;;
56136;SDS011;42008;52.934;5.884;2023-04-05T07:21:54;19.20;;;13.00;;
56136;SDS011;42008;52.934;5.884;2023-04-05T07:24:20;19.17;;;12.47;;
56136;SDS011;42008;52.934;5.884;2023-04-05T07:26:46;22.07;;;11.60;;
56136;SDS011;42008;52.934;5.884;2023-04-05T07:29:11;22.87;;;12.20;;
56136;SDS011;42008;52.934;5.884;2023-04-05T07:31:37;19.10;;;11.53;;
56136;SDS011;42008;52.934;5.884;2023-04-05T07:34:04;22.03;;;13.17;;
56136;SDS011;42008;52.934;5.884;2023-04-05T07:36:29;20.57;;;12.90;;
56136;SDS011;42008;52.934;5.884;2023-04-05T07:38:55;16.90;;;11.23;;
56136;SDS011;42008;52.934;5.884;2023-04-05T07:41:23;17.93;;;11.93;;
56136;SDS011;42008;52.934;5.884;2023-04-05T07:43:49;18.23;;;11.40;;
56136;SDS011;42008;52.934;5.884;2023-04-05T07:46:15;16.37;;;11.30;;
56136;SDS011;42008;52.934;5.884;2023-04-05T07:48:41;21.47;;;11.97;;
56136;SDS011;42008;52.934;5.884;2023-04-05T07:51:07;16.60;;;11.10;;
56136;SDS011;42008;52.934;5.884;2023-04-05T07:53:34;21.23;;;11.47;;
56136;SDS011;42008;52.934;5.884;2023-04-05T07:58:30;17.27;;;10.93;;
56136;SDS011;42008;52.934;5.884;2023-04-05T08:01:00;15.17;;;9.90;;
56136;SDS011;42008;52.934;5.884;2023-04-05T08:03:27;18.57;;;10.73;;
56136;SDS011;42008;52.934;5.884;2023-04-05T08:05:53;18.10;;;11.37;;
56136;SDS011;42008;52.934;5.884;2023-04-05T08:08:19;20.57;;;11.27;;
56136;SDS011;42008;52.934;5.884;2023-04-05T08:10:44;17.47;;;10.93;;
56136;SDS011;42008;52.934;5.884;2023-04-05T08:13:10;20.50;;;11.47;;
56136;SDS011;42008;52.934;5.884;2023-04-05T08:15:36;17.90;;;11.63;;
56136;SDS011;42008;52.934;5.884;2023-04-05T08:18:01;17.40;;;11.43;;
56136;SDS011;42008;52.934;5.884;2023-04-05T08:20:27;17.93;;;10.93;;
56136;SDS011;42008;52.934;5.884;2023-04-05T08:22:52;18.50;;;11.23;;
56136;SDS011;42008;52.934;5.884;2023-04-05T08:25:18;15.47;;;10.37;;
56136;SDS011;42008;52.934;5.884;2023-04-05T08:27:43;16.53;;;10.70;;
56136;SDS011;42008;52.934;5.884;2023-04-05T08:30:09;18.13;;;10.13;;
56136;SDS011;42008;52.934;5.884;2023-04-05T08:32:35;15.67;;;10.10;;
56136;SDS011;42008;52.934;5.884;2023-04-05T08:35:01;13.30;;;8.90;;
56136;SDS011;42008;52.934;5.884;2023-04-05T08:37:26;15.20;;;9.17;;
56136;SDS011;42008;52.934;5.884;2023-04-05T08:39:52;14.07;;;8.93;;
56136;SDS011;42008;52.934;5.884;2023-04-05T08:42:22;15.93;;;9.57;;
56136;SDS011;42008;52.934;5.884;2023-04-05T08:44:53;17.40;;;9.30;;
56136;SDS011;42008;52.934;5.884;2023-04-05T08:47:21;12.97;;;8.37;;
56136;SDS011;42008;52.934;5.884;2023-04-05T08:49:47;16.03;;;8.80;;
56136;SDS011;42008;52.934;5.884;2023-04-05T08:52:13;14.57;;;8.80;;
56136;SDS011;42008;52.934;5.884;2023-04-05T08:54:39;13.63;;;8.20;;
56136;SDS011;42008;52.934;5.884;2023-04-05T08:57:06;13.67;;;8.27;;
56136;SDS011;42008;52.934;5.884;2023-04-05T08:59:32;12.27;;;7.97;;
56136;SDS011;42008;52.934;5.884;2023-04-05T09:02:00;13.10;;;7.80;;
56136;SDS011;42008;52.934;5.884;2023-04-05T09:04:28;14.37;;;8.47;;
56136;SDS011;42008;52.934;5.884;2023-04-05T09:06:59;14.00;;;7.73;;
56136;SDS011;42008;52.934;5.884;2023-04-05T09:09:27;14.70;;;8.10;;
56136;SDS011;42008;52.934;5.884;2023-04-05T09:11:58;11.60;;;7.37;;
56136;SDS011;42008;52.934;5.884;2023-04-05T09:14:25;13.20;;;7.40;;
56136;SDS011;42008;52.934;5.884;2023-04-05T09:16:51;15.23;;;7.80;;
56136;SDS011;42008;52.934;5.884;2023-04-05T09:19:17;11.73;;;7.53;;
56136;SDS011;42008;52.934;5.884;2023-04-05T09:24:29;12.63;;;7.37;;
56136;SDS011;42008;52.934;5.884;2023-04-05T09:27:05;10.93;;;5.87;;
56136;SDS011;42008;52.934;5.884;2023-04-05T09:29:34;8.67;;;5.63;;
56136;SDS011;42008;52.934;5.884;2023-04-05T09:32:01;11.67;;;5.70;;
56136;SDS011;42008;52.934;5.884;2023-04-05T09:34:28;11.47;;;5.90;;
56136;SDS011;42008;52.934;5.884;2023-04-05T09:36:59;10.67;;;6.23;;
56136;SDS011;42008;52.934;5.884;2023-04-05T09:39:31;8.50;;;5.60;;
56136;SDS011;42008;52.934;5.884;2023-04-05T09:42:03;8.75;;;5.93;;
56136;SDS011;42008;52.934;5.884;2023-04-05T09:47:19;9.93;;;5.70;;
56136;SDS011;42008;52.934;5.884;2023-04-05T09:49:46;8.80;;;5.60;;
56136;SDS011;42008;52.934;5.884;2023-04-05T09:52:27;11.23;;;5.87;;
56136;SDS011;42008;52.934;5.884;2023-04-05T09:54:56;9.37;;;5.40;;
56136;SDS011;42008;52.934;5.884;2023-04-05T09:57:27;12.17;;;5.90;;
56136;SDS011;42008;52.934;5.884;2023-04-05T09:59:57;8.73;;;5.13;;
56136;SDS011;42008;52.934;5.884;2023-04-05T10:02:22;8.43;;;5.47;;
56136;SDS011;42008;52.934;5.884;2023-04-05T10:04:49;10.13;;;5.07;;
56136;SDS011;42008;52.934;5.884;2023-04-05T10:07:16;10.77;;;5.63;;
56136;SDS011;42008;52.934;5.884;2023-04-05T10:09:44;10.77;;;5.03;;
56136;SDS011;42008;52.934;5.884;2023-04-05T10:12:12;8.60;;;4.83;;
56136;SDS011;42008;52.934;5.884;2023-04-05T10:14:45;10.23;;;5.43;;
56136;SDS011;42008;52.934;5.884;2023-04-05T10:20:06;9.68;;;5.20;;
56136;SDS011;42008;52.934;5.884;2023-04-05T10:22:55;10.73;;;5.60;;
56136;SDS011;42008;52.934;5.884;2023-04-05T10:28:25;8.00;;;5.23;;
56136;SDS011;42008;52.934;5.884;2023-04-05T10:31:08;9.00;;;5.20;;
56136;SDS011;42008;52.934;5.884;2023-04-05T10:33:42;10.50;;;5.37;;
56136;SDS011;42008;52.934;5.884;2023-04-05T10:36:25;8.97;;;5.07;;
56136;SDS011;42008;52.934;5.884;2023-04-05T10:41:44;9.23;;;5.47;;
56136;SDS011;42008;52.934;5.884;2023-04-05T10:44:12;8.33;;;5.03;;
56136;SDS011;42008;52.934;5.884;2023-04-05T10:46:39;7.87;;;4.80;;
56136;SDS011;42008;52.934;5.884;2023-04-05T10:54:14;8.37;;;4.97;;
56136;SDS011;42008;52.934;5.884;2023-04-05T10:56:43;7.33;;;4.83;;
56136;SDS011;42008;52.934;5.884;2023-04-05T10:59:10;9.10;;;5.10;;
56136;SDS011;42008;52.934;5.884;2023-04-05T11:01:37;10.53;;;5.17;;
56136;SDS011;42008;52.934;5.884;2023-04-05T11:06:36;9.97;;;5.17;;
56136;SDS011;42008;52.934;5.884;2023-04-05T11:09:13;9.90;;;5.17;;
56136;SDS011;42008;52.934;5.884;2023-04-05T11:11:45;10.02;;;5.32;;
56136;SDS011;42008;52.934;5.884;2023-04-05T11:16:50;10.37;;;5.50;;
56136;SDS011;42008;52.934;5.884;2023-04-05T11:22:07;9.73;;;5.00;;
56136;SDS011;42008;52.934;5.884;2023-04-05T11:27:25;10.07;;;5.80;;
56136;SDS011;42008;52.934;5.884;2023-04-05T11:29:59;8.57;;;5.10;;
56136;SDS011;42008;52.934;5.884;2023-04-05T11:32:41;8.67;;;4.97;;
56136;SDS011;42008;52.934;5.884;2023-04-05T11:35:12;10.30;;;5.53;;
56136;SDS011;42008;52.934;5.884;2023-04-05T11:37:55;8.07;;;4.90;;
56136;SDS011;42008;52.934;5.884;2023-04-05T11:40:36;9.30;;;5.00;;
56136;SDS011;42008;52.934;5.884;2023-04-05T11:43:05;7.97;;;4.72;;
56136;SDS011;42008;52.934;5.884;2023-04-05T11:45:32;8.10;;;5.33;;
56136;SDS011;42008;52.934;5.884;2023-04-05T11:48:00;10.93;;;5.73;;
56136;SDS011;42008;52.934;5.884;2023-04-05T11:50:32;8.30;;;5.57;;
56136;SDS011;42008;52.934;5.884;2023-04-05T11:53:32;10.70;;;5.17;;
56136;SDS011;42008;52.934;5.884;2023-04-05T11:55:51;10.35;;;6.15;;
56136;SDS011;42008;52.934;5.884;2023-04-05T11:58:20;10.97;;;5.90;;
56136;SDS011;42008;52.934;5.884;2023-04-05T12:00:57;9.77;;;5.23;;
56136;SDS011;42008;52.934;5.884;2023-04-05T12:03:23;9.37;;;4.83;;
56136;SDS011;42008;52.934;5.884;2023-04-05T12:05:51;8.93;;;5.60;;
56136;SDS011;42008;52.934;5.884;2023-04-05T12:08:19;7.33;;;5.03;;
56136;SDS011;42008;52.934;5.884;2023-04-05T12:15:57;8.30;;;5.10;;
56136;SDS011;42008;52.934;5.884;2023-04-05T12:18:24;7.00;;;4.80;;
56136;SDS011;42008;52.934;5.884;2023-04-05T12:20:52;7.40;;;4.83;;
56136;SDS011;42008;52.934;5.884;2023-04-05T12:23:18;8.60;;;4.97;;
56136;SDS011;42008;52.934;5.884;2023-04-05T12:25:46;8.00;;;4.70;;
56136;SDS011;42008;52.934;5.884;2023-04-05T12:28:12;8.37;;;4.83;;
56136;SDS011;42008;52.934;5.884;2023-04-05T12:33:34;8.97;;;5.47;;
56136;SDS011;42008;52.934;5.884;2023-04-05T12:36:06;10.40;;;5.03;;
56136;SDS011;42008;52.934;5.884;2023-04-05T12:38:32;7.60;;;4.83;;
56136;SDS011;42008;52.934;5.884;2023-04-05T12:41:01;7.77;;;4.57;;
56136;SDS011;42008;52.934;5.884;2023-04-05T12:43:37;7.20;;;4.27;;
56136;SDS011;42008;52.934;5.884;2023-04-05T12:46:10;8.10;;;5.30;;
56136;SDS011;42008;52.934;5.884;2023-04-05T12:48:40;10.47;;;5.60;;
56136;SDS011;42008;52.934;5.884;2023-04-05T12:51:13;9.97;;;5.40;;
56136;SDS011;42008;52.934;5.884;2023-04-05T12:53:44;8.10;;;5.40;;
56136;SDS011;42008;52.934;5.884;2023-04-05T12:56:16;8.50;;;5.20;;
56136;SDS011;42008;52.934;5.884;2023-04-05T12:58:41;11.17;;;5.10;;
56136;SDS011;42008;52.934;5.884;2023-04-05T13:01:07;9.13;;;5.67;;
56136;SDS011;42008;52.934;5.884;2023-04-05T13:03:34;7.90;;;5.33;;
56136;SDS011;42008;52.934;5.884;2023-04-05T13:05:59;8.60;;;5.40;;
56136;SDS011;42008;52.934;5.884;2023-04-05T13:08:25;7.30;;;4.87;;
56136;SDS011;42008;52.934;5.884;2023-04-05T13:10:51;8.57;;;4.87;;
56136;SDS011;42008;52.934;5.884;2023-04-05T13:13:17;6.87;;;5.00;;
56136;SDS011;42008;52.934;5.884;2023-04-05T13:15:45;7.50;;;5.10;;
56136;SDS011;42008;52.934;5.884;2023-04-05T13:18:10;9.27;;;5.67;;
56136;SDS011;42008;52.934;5.884;2023-04-05T13:20:38;9.70;;;5.47;;
56136;SDS011;42008;52.934;5.884;2023-04-05T13:23:05;12.60;;;5.33;;
56136;SDS011;42008;52.934;5.884;2023-04-05T13:25:34;8.07;;;4.57;;
56136;SDS011;42008;52.934;5.884;2023-04-05T13:28:00;8.13;;;4.97;;
56136;SDS011;42008;52.934;5.884;2023-04-05T13:30:26;7.50;;;5.57;;
56136;SDS011;42008;52.934;5.884;2023-04-05T13:32:52;8.83;;;4.90;;
56136;SDS011;42008;52.934;5.884;2023-04-05T13:35:17;9.63;;;5.13;;
56136;SDS011;42008;52.934;5.884;2023-04-05T13:37:43;13.63;;;4.60;;
56136;SDS011;42008;52.934;5.884;2023-04-05T13:40:09;11.10;;;5.10;;
56136;SDS011;42008;52.934;5.884;2023-04-05T13:42:34;9.53;;;4.97;;
56136;SDS011;42008;52.934;5.884;2023-04-05T13:45:00;7.27;;;4.90;;
56136;SDS011;42008;52.934;5.884;2023-04-05T13:47:26;9.40;;;4.63;;
56136;SDS011;42008;52.934;5.884;2023-04-05T13:49:51;7.83;;;4.90;;
56136;SDS011;42008;52.934;5.884;2023-04-05T13:52:17;10.70;;;4.77;;
56136;SDS011;42008;52.934;5.884;2023-04-05T13:54:42;7.70;;;4.87;;
56136;SDS011;42008;52.934;5.884;2023-04-05T13:57:08;7.97;;;4.97;;
56136;SDS011;42008;52.934;5.884;2023-04-05T13:59:35;9.40;;;4.97;;
56136;SDS011;42008;52.934;5.884;2023-04-05T14:02:01;8.87;;;5.33;;
56136;SDS011;42008;52.934;5.884;2023-04-05T14:04:26;8.10;;;5.17;;
56136;SDS011;42008;52.934;5.884;2023-04-05T14:06:52;8.50;;;5.00;;
56136;SDS011;42008;52.934;5.884;2023-04-05T14:09:18;10.37;;;5.00;;
56136;SDS011;42008;52.934;5.884;2023-04-05T14:11:44;9.60;;;5.20;;
56136;SDS011;42008;52.934;5.884;2023-04-05T14:14:09;6.87;;;5.10;;
56136;SDS011;42008;52.934;5.884;2023-04-05T14:16:35;8.40;;;5.40;;
56136;SDS011;42008;52.934;5.884;2023-04-05T14:19:02;9.87;;;5.47;;
56136;SDS011;42008;52.934;5.884;2023-04-05T14:21:28;8.80;;;5.87;;
56136;SDS011;42008;52.934;5.884;2023-04-05T14:23:53;9.30;;;5.37;;
56136;SDS011;42008;52.934;5.884;2023-04-05T14:26:25;8.05;;;5.68;;
56136;SDS011;42008;52.934;5.884;2023-04-05T14:28:51;7.60;;;5.20;;
56136;SDS011;42008;52.934;5.884;2023-04-05T14:31:17;8.93;;;5.77;;
56136;SDS011;42008;52.934;5.884;2023-04-05T14:33:43;9.50;;;5.40;;
56136;SDS011;42008;52.934;5.884;2023-04-05T14:36:08;7.93;;;5.40;;
56136;SDS011;42008;52.934;5.884;2023-04-05T14:38:34;8.37;;;4.90;;
56136;SDS011;42008;52.934;5.884;2023-04-05T14:41:00;7.40;;;4.80;;
56136;SDS011;42008;52.934;5.884;2023-04-05T14:43:26;7.23;;;4.67;;
56136;SDS011;42008;52.934;5.884;2023-04-05T14:45:51;8.85;;;5.10;;
56136;SDS011;42008;52.934;5.884;2023-04-05T14:48:17;8.75;;;5.32;;
56136;SDS011;42008;52.934;5.884;2023-04-05T14:50:43;8.07;;;4.93;;
56136;SDS011;42008;52.934;5.884;2023-04-05T14:53:08;7.33;;;4.43;;
56136;SDS011;42008;52.934;5.884;2023-04-05T14:55:34;9.32;;;4.97;;
56136;SDS011;42008;52.934;5.884;2023-04-05T14:58:00;9.77;;;4.55;;
56136;SDS011;42008;52.934;5.884;2023-04-05T15:00:25;6.40;;;4.63;;
56136;SDS011;42008;52.934;5.884;2023-04-05T15:02:51;7.22;;;4.32;;
56136;SDS011;42008;52.934;5.884;2023-04-05T15:05:17;8.73;;;5.00;;
56136;SDS011;42008;52.934;5.884;2023-04-05T15:07:43;7.65;;;4.13;;
56136;SDS011;42008;52.934;5.884;2023-04-05T15:10:08;6.70;;;4.70;;
56136;SDS011;42008;52.934;5.884;2023-04-05T15:12:34;8.18;;;4.95;;
56136;SDS011;42008;52.934;5.884;2023-04-05T15:15:00;6.93;;;5.13;;
56136;SDS011;42008;52.934;5.884;2023-04-05T15:17:26;8.80;;;5.20;;
56136;SDS011;42008;52.934;5.884;2023-04-05T15:19:52;10.15;;;4.88;;
56136;SDS011;42008;52.934;5.884;2023-04-05T15:22:17;8.07;;;5.05;;
56136;SDS011;42008;52.934;5.884;2023-04-05T15:24:44;8.00;;;5.20;;
56136;SDS011;42008;52.934;5.884;2023-04-05T15:27:10;8.75;;;5.40;;
56136;SDS011;42008;52.934;5.884;2023-04-05T15:29:35;25.80;;;9.93;;
56136;SDS011;42008;52.934;5.884;2023-04-05T15:32:01;9.18;;;5.07;;
56136;SDS011;42008;52.934;5.884;2023-04-05T15:34:27;9.18;;;5.97;;